sensor_id;sensor_type;location;lat;lon;timestamp;P1;durP1;ratioP1;P2;durP2;ratioP2
53253;SDS011;75200;53.048;7.552;2024-02-21T00:00:40;41.58;;;21.38;;
53253;SDS011;75200;53.048;7.552;2024-02-21T00:03:07;43.05;;;20.50;;
53253;SDS011;75200;53.048;7.552;2024-02-21T00:05:32;41.60;;;18.70;;
53253;SDS011;75200;53.048;7.552;2024-02-21T00:07:59;35.83;;;19.80;;
53253;SDS011;75200;53.048;7.552;2024-02-21T00:10:25;35.70;;;19.58;;
53253;SDS011;75200;53.048;7.552;2024-02-21T00:12:51;31.17;;;17.27;;
53253;SDS011;75200;53.048;7.552;2024-02-21T00:15:17;37.08;;;19.38;;
53253;SDS011;75200;53.048;7.552;2024-02-21T00:17:43;36.15;;;18.13;;
53253;SDS011;75200;53.048;7.552;2024-02-21T00:20:09;38.88;;;19.02;;
53253;SDS011;75200;53.048;7.552;2024-02-21T00:22:36;39.92;;;16.73;;
53253;SDS011;75200;53.048;7.552;2024-02-21T00:25:02;30.40;;;17.25;;
53253;SDS011;75200;53.048;7.552;2024-02-21T00:27:28;38.67;;;17.75;;
53253;SDS011;75200;53.048;7.552;2024-02-21T00:29:54;31.20;;;16.98;;
53253;SDS011;75200;53.048;7.552;2024-02-21T00:32:20;28.98;;;16.77;;
53253;SDS011;75200;53.048;7.552;2024-02-21T00:34:47;32.63;;;16.55;;
53253;SDS011;75200;53.048;7.552;2024-02-21T00:37:13;23.73;;;15.85;;
53253;SDS011;75200;53.048;7.552;2024-02-21T00:39:40;30.92;;;15.73;;
53253;SDS011;75200;53.048;7.552;2024-02-21T00:42:07;28.73;;;16.38;;
53253;SDS011;75200;53.048;7.552;2024-02-21T00:44:34;30.42;;;15.98;;
53253;SDS011;75200;53.048;7.552;2024-02-21T00:47:00;28.98;;;14.80;;
53253;SDS011;75200;53.048;7.552;2024-02-21T00:49:26;29.60;;;15.15;;
53253;SDS011;75200;53.048;7.552;2024-02-21T00:51:52;28.83;;;15.07;;
53253;SDS011;75200;53.048;7.552;2024-02-21T00:54:18;26.88;;;14.20;;
53253;SDS011;75200;53.048;7.552;2024-02-21T00:56:44;28.45;;;14.13;;
53253;SDS011;75200;53.048;7.552;2024-02-21T00:59:10;31.27;;;15.77;;
53253;SDS011;75200;53.048;7.552;2024-02-21T01:01:36;31.08;;;15.50;;
53253;SDS011;75200;53.048;7.552;2024-02-21T01:04:02;25.67;;;13.63;;
53253;SDS011;75200;53.048;7.552;2024-02-21T01:06:29;27.92;;;14.60;;
53253;SDS011;75200;53.048;7.552;2024-02-21T01:08:55;29.05;;;14.02;;
53253;SDS011;75200;53.048;7.552;2024-02-21T01:11:21;31.77;;;14.15;;
53253;SDS011;75200;53.048;7.552;2024-02-21T01:13:47;31.48;;;13.48;;
53253;SDS011;75200;53.048;7.552;2024-02-21T01:16:13;29.70;;;14.07;;
53253;SDS011;75200;53.048;7.552;2024-02-21T01:18:41;30.65;;;13.48;;
53253;SDS011;75200;53.048;7.552;2024-02-21T01:21:08;30.42;;;14.82;;
53253;SDS011;75200;53.048;7.552;2024-02-21T01:23:35;33.80;;;15.07;;
53253;SDS011;75200;53.048;7.552;2024-02-21T01:26:03;28.88;;;14.30;;
53253;SDS011;75200;53.048;7.552;2024-02-21T01:28:30;32.80;;;14.60;;
53253;SDS011;75200;53.048;7.552;2024-02-21T01:30:58;29.65;;;15.57;;
53253;SDS011;75200;53.048;7.552;2024-02-21T01:33:24;31.75;;;13.43;;
53253;SDS011;75200;53.048;7.552;2024-02-21T01:35:51;27.98;;;13.88;;
53253;SDS011;75200;53.048;7.552;2024-02-21T01:38:16;32.15;;;14.52;;
53253;SDS011;75200;53.048;7.552;2024-02-21T01:40:42;30.92;;;14.60;;
53253;SDS011;75200;53.048;7.552;2024-02-21T01:43:15;26.55;;;15.15;;
53253;SDS011;75200;53.048;7.552;2024-02-21T01:45:52;32.00;;;14.23;;
53253;SDS011;75200;53.048;7.552;2024-02-21T01:48:19;30.52;;;13.95;;
53253;SDS011;75200;53.048;7.552;2024-02-21T01:50:50;28.40;;;13.30;;
53253;SDS011;75200;53.048;7.552;2024-02-21T01:53:17;27.95;;;13.45;;
53253;SDS011;75200;53.048;7.552;2024-02-21T01:55:49;35.85;;;14.82;;
53253;SDS011;75200;53.048;7.552;2024-02-21T01:58:16;31.40;;;15.15;;
53253;SDS011;75200;53.048;7.552;2024-02-21T02:00:44;34.50;;;15.32;;
53253;SDS011;75200;53.048;7.552;2024-02-21T02:03:12;31.42;;;14.15;;
53253;SDS011;75200;53.048;7.552;2024-02-21T02:05:45;32.40;;;14.43;;
53253;SDS011;75200;53.048;7.552;2024-02-21T02:08:14;23.95;;;13.25;;
53253;SDS011;75200;53.048;7.552;2024-02-21T02:10:41;25.45;;;12.80;;
53253;SDS011;75200;53.048;7.552;2024-02-21T02:13:08;31.20;;;14.05;;
53253;SDS011;75200;53.048;7.552;2024-02-21T02:15:49;29.33;;;13.80;;
53253;SDS011;75200;53.048;7.552;2024-02-21T02:18:16;26.05;;;14.15;;
53253;SDS011;75200;53.048;7.552;2024-02-21T02:20:44;32.40;;;14.43;;
53253;SDS011;75200;53.048;7.552;2024-02-21T02:23:11;29.83;;;12.45;;
53253;SDS011;75200;53.048;7.552;2024-02-21T02:25:39;26.08;;;11.82;;
53253;SDS011;75200;53.048;7.552;2024-02-21T02:28:08;24.70;;;12.05;;
53253;SDS011;75200;53.048;7.552;2024-02-21T02:30:34;25.38;;;13.00;;
53253;SDS011;75200;53.048;7.552;2024-02-21T02:33:04;22.60;;;11.75;;
53253;SDS011;75200;53.048;7.552;2024-02-21T02:35:30;34.97;;;14.45;;
53253;SDS011;75200;53.048;7.552;2024-02-21T02:37:56;34.60;;;16.23;;
53253;SDS011;75200;53.048;7.552;2024-02-21T02:40:22;27.48;;;12.48;;
53253;SDS011;75200;53.048;7.552;2024-02-21T02:42:48;32.75;;;14.63;;
53253;SDS011;75200;53.048;7.552;2024-02-21T02:45:18;32.08;;;14.98;;
53253;SDS011;75200;53.048;7.552;2024-02-21T02:47:44;29.80;;;14.57;;
53253;SDS011;75200;53.048;7.552;2024-02-21T02:50:11;30.20;;;13.32;;
53253;SDS011;75200;53.048;7.552;2024-02-21T02:52:37;40.90;;;16.50;;
53253;SDS011;75200;53.048;7.552;2024-02-21T02:55:03;37.58;;;17.23;;
53253;SDS011;75200;53.048;7.552;2024-02-21T02:57:30;46.28;;;17.58;;
53253;SDS011;75200;53.048;7.552;2024-02-21T02:59:56;33.78;;;15.82;;
53253;SDS011;75200;53.048;7.552;2024-02-21T03:02:22;45.45;;;17.25;;
53253;SDS011;75200;53.048;7.552;2024-02-21T03:04:48;36.28;;;16.15;;
53253;SDS011;75200;53.048;7.552;2024-02-21T03:07:14;42.35;;;17.30;;
53253;SDS011;75200;53.048;7.552;2024-02-21T03:09:41;30.02;;;14.80;;
53253;SDS011;75200;53.048;7.552;2024-02-21T03:12:10;37.15;;;15.23;;
53253;SDS011;75200;53.048;7.552;2024-02-21T03:14:36;36.42;;;15.73;;
53253;SDS011;75200;53.048;7.552;2024-02-21T03:17:02;35.60;;;15.10;;
53253;SDS011;75200;53.048;7.552;2024-02-21T03:19:29;37.13;;;15.35;;
53253;SDS011;75200;53.048;7.552;2024-02-21T03:21:55;27.23;;;12.20;;
53253;SDS011;75200;53.048;7.552;2024-02-21T03:24:22;24.33;;;12.68;;
53253;SDS011;75200;53.048;7.552;2024-02-21T03:26:48;32.25;;;12.90;;
53253;SDS011;75200;53.048;7.552;2024-02-21T03:29:15;31.45;;;13.73;;
53253;SDS011;75200;53.048;7.552;2024-02-21T03:31:41;29.65;;;12.73;;
53253;SDS011;75200;53.048;7.552;2024-02-21T03:34:07;25.85;;;12.27;;
53253;SDS011;75200;53.048;7.552;2024-02-21T03:36:33;23.83;;;12.55;;
53253;SDS011;75200;53.048;7.552;2024-02-21T03:38:59;33.40;;;13.45;;
53253;SDS011;75200;53.048;7.552;2024-02-21T03:41:26;24.77;;;11.75;;
53253;SDS011;75200;53.048;7.552;2024-02-21T03:43:52;19.55;;;11.00;;
53253;SDS011;75200;53.048;7.552;2024-02-21T03:46:18;24.40;;;11.73;;
53253;SDS011;75200;53.048;7.552;2024-02-21T03:48:44;27.17;;;11.65;;
53253;SDS011;75200;53.048;7.552;2024-02-21T03:51:11;22.80;;;11.95;;
53253;SDS011;75200;53.048;7.552;2024-02-21T03:53:37;25.35;;;12.50;;
53253;SDS011;75200;53.048;7.552;2024-02-21T03:56:03;22.13;;;11.10;;
53253;SDS011;75200;53.048;7.552;2024-02-21T03:58:29;33.00;;;13.75;;
53253;SDS011;75200;53.048;7.552;2024-02-21T04:00:56;25.45;;;11.52;;
53253;SDS011;75200;53.048;7.552;2024-02-21T04:03:22;21.05;;;10.98;;
53253;SDS011;75200;53.048;7.552;2024-02-21T04:05:47;24.17;;;11.32;;
53253;SDS011;75200;53.048;7.552;2024-02-21T04:08:14;22.60;;;12.20;;
53253;SDS011;75200;53.048;7.552;2024-02-21T04:10:39;23.17;;;11.18;;
53253;SDS011;75200;53.048;7.552;2024-02-21T04:13:06;20.40;;;10.10;;
53253;SDS011;75200;53.048;7.552;2024-02-21T04:15:32;25.45;;;12.52;;
53253;SDS011;75200;53.048;7.552;2024-02-21T04:17:58;24.73;;;11.90;;
53253;SDS011;75200;53.048;7.552;2024-02-21T04:20:24;22.73;;;10.48;;
53253;SDS011;75200;53.048;7.552;2024-02-21T04:22:49;26.02;;;13.52;;
53253;SDS011;75200;53.048;7.552;2024-02-21T04:25:16;24.17;;;11.82;;
53253;SDS011;75200;53.048;7.552;2024-02-21T04:27:41;24.10;;;11.23;;
53253;SDS011;75200;53.048;7.552;2024-02-21T04:30:07;23.02;;;10.63;;
53253;SDS011;75200;53.048;7.552;2024-02-21T04:32:34;19.48;;;10.63;;
53253;SDS011;75200;53.048;7.552;2024-02-21T04:35:01;27.45;;;12.93;;
53253;SDS011;75200;53.048;7.552;2024-02-21T04:37:26;23.25;;;12.07;;
53253;SDS011;75200;53.048;7.552;2024-02-21T04:39:52;23.20;;;11.85;;
53253;SDS011;75200;53.048;7.552;2024-02-21T04:42:18;35.20;;;14.68;;
53253;SDS011;75200;53.048;7.552;2024-02-21T04:44:45;19.45;;;11.20;;
53253;SDS011;75200;53.048;7.552;2024-02-21T04:47:10;25.48;;;11.43;;
53253;SDS011;75200;53.048;7.552;2024-02-21T04:49:37;19.67;;;11.68;;
53253;SDS011;75200;53.048;7.552;2024-02-21T04:52:03;20.90;;;10.45;;
53253;SDS011;75200;53.048;7.552;2024-02-21T04:54:30;26.33;;;11.68;;
53253;SDS011;75200;53.048;7.552;2024-02-21T04:56:56;22.60;;;11.95;;
53253;SDS011;75200;53.048;7.552;2024-02-21T04:59:22;21.55;;;10.50;;
53253;SDS011;75200;53.048;7.552;2024-02-21T05:01:48;20.40;;;8.88;;
53253;SDS011;75200;53.048;7.552;2024-02-21T05:04:13;17.52;;;9.50;;
53253;SDS011;75200;53.048;7.552;2024-02-21T05:06:40;16.50;;;9.63;;
53253;SDS011;75200;53.048;7.552;2024-02-21T05:09:07;22.80;;;12.07;;
53253;SDS011;75200;53.048;7.552;2024-02-21T05:11:34;22.35;;;10.30;;
53253;SDS011;75200;53.048;7.552;2024-02-21T05:14:03;22.48;;;11.63;;
53253;SDS011;75200;53.048;7.552;2024-02-21T05:16:29;18.10;;;10.15;;
53253;SDS011;75200;53.048;7.552;2024-02-21T05:18:56;23.42;;;11.70;;
53253;SDS011;75200;53.048;7.552;2024-02-21T05:21:25;21.52;;;11.25;;
53253;SDS011;75200;53.048;7.552;2024-02-21T05:23:52;20.92;;;11.00;;
53253;SDS011;75200;53.048;7.552;2024-02-21T05:26:24;24.83;;;12.50;;
53253;SDS011;75200;53.048;7.552;2024-02-21T05:28:51;29.50;;;13.13;;
53253;SDS011;75200;53.048;7.552;2024-02-21T05:31:17;26.33;;;11.95;;
53253;SDS011;75200;53.048;7.552;2024-02-21T05:33:44;24.55;;;11.95;;
53253;SDS011;75200;53.048;7.552;2024-02-21T05:36:10;26.70;;;12.05;;
53253;SDS011;75200;53.048;7.552;2024-02-21T05:38:37;23.83;;;12.05;;
53253;SDS011;75200;53.048;7.552;2024-02-21T05:41:03;23.35;;;11.00;;
53253;SDS011;75200;53.048;7.552;2024-02-21T05:43:29;25.95;;;13.05;;
53253;SDS011;75200;53.048;7.552;2024-02-21T05:45:55;27.48;;;13.38;;
53253;SDS011;75200;53.048;7.552;2024-02-21T05:48:24;34.53;;;14.35;;
53253;SDS011;75200;53.048;7.552;2024-02-21T05:50:50;26.65;;;12.48;;
53253;SDS011;75200;53.048;7.552;2024-02-21T05:53:16;28.15;;;13.23;;
53253;SDS011;75200;53.048;7.552;2024-02-21T05:55:42;33.08;;;13.43;;
53253;SDS011;75200;53.048;7.552;2024-02-21T05:58:08;39.47;;;13.88;;
53253;SDS011;75200;53.048;7.552;2024-02-21T06:00:38;28.08;;;13.00;;
53253;SDS011;75200;53.048;7.552;2024-02-21T06:03:04;28.95;;;12.82;;
53253;SDS011;75200;53.048;7.552;2024-02-21T06:05:30;30.58;;;14.77;;
53253;SDS011;75200;53.048;7.552;2024-02-21T06:07:57;35.53;;;13.25;;
53253;SDS011;75200;53.048;7.552;2024-02-21T06:10:23;30.30;;;12.90;;
53253;SDS011;75200;53.048;7.552;2024-02-21T06:12:49;29.65;;;12.10;;
53253;SDS011;75200;53.048;7.552;2024-02-21T06:15:15;34.50;;;13.38;;
53253;SDS011;75200;53.048;7.552;2024-02-21T06:17:41;31.08;;;14.75;;
53253;SDS011;75200;53.048;7.552;2024-02-21T06:20:07;32.08;;;14.45;;
53253;SDS011;75200;53.048;7.552;2024-02-21T06:22:33;30.83;;;12.90;;
53253;SDS011;75200;53.048;7.552;2024-02-21T06:24:59;36.13;;;15.55;;
53253;SDS011;75200;53.048;7.552;2024-02-21T06:27:25;35.22;;;15.60;;
53253;SDS011;75200;53.048;7.552;2024-02-21T06:29:51;37.00;;;14.18;;
53253;SDS011;75200;53.048;7.552;2024-02-21T06:32:17;42.03;;;16.42;;
53253;SDS011;75200;53.048;7.552;2024-02-21T06:34:43;31.90;;;13.82;;
53253;SDS011;75200;53.048;7.552;2024-02-21T06:37:09;46.75;;;16.77;;
53253;SDS011;75200;53.048;7.552;2024-02-21T06:39:35;48.47;;;17.35;;
53253;SDS011;75200;53.048;7.552;2024-02-21T06:42:03;51.35;;;18.67;;
53253;SDS011;75200;53.048;7.552;2024-02-21T06:44:29;43.55;;;17.00;;
53253;SDS011;75200;53.048;7.552;2024-02-21T06:46:57;49.63;;;18.65;;
53253;SDS011;75200;53.048;7.552;2024-02-21T06:49:23;45.33;;;16.85;;
53253;SDS011;75200;53.048;7.552;2024-02-21T06:51:49;40.00;;;16.10;;
53253;SDS011;75200;53.048;7.552;2024-02-21T06:54:15;40.45;;;15.70;;
53253;SDS011;75200;53.048;7.552;2024-02-21T06:56:41;44.78;;;17.35;;
53253;SDS011;75200;53.048;7.552;2024-02-21T06:59:07;46.17;;;16.65;;
53253;SDS011;75200;53.048;7.552;2024-02-21T07:01:33;43.78;;;17.23;;
53253;SDS011;75200;53.048;7.552;2024-02-21T07:03:59;40.40;;;16.40;;
53253;SDS011;75200;53.048;7.552;2024-02-21T07:06:25;37.42;;;14.15;;
53253;SDS011;75200;53.048;7.552;2024-02-21T07:08:51;38.65;;;16.70;;
53253;SDS011;75200;53.048;7.552;2024-02-21T07:11:17;37.95;;;16.50;;
53253;SDS011;75200;53.048;7.552;2024-02-21T07:13:42;38.33;;;16.00;;
53253;SDS011;75200;53.048;7.552;2024-02-21T07:16:09;39.40;;;17.00;;
53253;SDS011;75200;53.048;7.552;2024-02-21T07:18:35;41.08;;;17.50;;
53253;SDS011;75200;53.048;7.552;2024-02-21T07:21:00;44.28;;;16.95;;
53253;SDS011;75200;53.048;7.552;2024-02-21T07:23:26;50.25;;;20.35;;
53253;SDS011;75200;53.048;7.552;2024-02-21T07:25:52;37.15;;;16.65;;
53253;SDS011;75200;53.048;7.552;2024-02-21T07:28:18;42.67;;;18.85;;
53253;SDS011;75200;53.048;7.552;2024-02-21T07:30:44;41.28;;;18.52;;
53253;SDS011;75200;53.048;7.552;2024-02-21T07:33:10;43.30;;;17.48;;
53253;SDS011;75200;53.048;7.552;2024-02-21T07:35:36;38.47;;;18.58;;
53253;SDS011;75200;53.048;7.552;2024-02-21T07:38:06;42.03;;;18.80;;
53253;SDS011;75200;53.048;7.552;2024-02-21T07:40:32;39.42;;;18.70;;
53253;SDS011;75200;53.048;7.552;2024-02-21T07:42:58;37.15;;;18.77;;
53253;SDS011;75200;53.048;7.552;2024-02-21T07:45:24;45.05;;;20.08;;
53253;SDS011;75200;53.048;7.552;2024-02-21T07:47:50;34.00;;;18.73;;
53253;SDS011;75200;53.048;7.552;2024-02-21T07:50:16;39.28;;;17.17;;
53253;SDS011;75200;53.048;7.552;2024-02-21T07:52:42;39.38;;;19.98;;
53253;SDS011;75200;53.048;7.552;2024-02-21T07:55:08;43.55;;;18.75;;
53253;SDS011;75200;53.048;7.552;2024-02-21T07:57:35;44.83;;;19.73;;
53253;SDS011;75200;53.048;7.552;2024-02-21T08:00:02;37.20;;;17.33;;
53253;SDS011;75200;53.048;7.552;2024-02-21T08:02:30;37.63;;;17.35;;
53253;SDS011;75200;53.048;7.552;2024-02-21T08:04:56;39.00;;;17.58;;
53253;SDS011;75200;53.048;7.552;2024-02-21T08:07:21;33.58;;;16.17;;
53253;SDS011;75200;53.048;7.552;2024-02-21T08:09:47;34.80;;;15.82;;
53253;SDS011;75200;53.048;7.552;2024-02-21T08:12:13;37.25;;;16.38;;
53253;SDS011;75200;53.048;7.552;2024-02-21T08:14:39;32.92;;;16.63;;
53253;SDS011;75200;53.048;7.552;2024-02-21T08:17:04;33.33;;;15.75;;
53253;SDS011;75200;53.048;7.552;2024-02-21T08:19:31;30.98;;;15.25;;
53253;SDS011;75200;53.048;7.552;2024-02-21T08:21:57;30.20;;;15.00;;
53253;SDS011;75200;53.048;7.552;2024-02-21T08:24:23;28.55;;;15.48;;
53253;SDS011;75200;53.048;7.552;2024-02-21T08:26:49;40.30;;;17.48;;
53253;SDS011;75200;53.048;7.552;2024-02-21T08:29:15;38.42;;;17.58;;
53253;SDS011;75200;53.048;7.552;2024-02-21T08:31:40;35.55;;;17.65;;
53253;SDS011;75200;53.048;7.552;2024-02-21T08:34:06;30.75;;;15.02;;
53253;SDS011;75200;53.048;7.552;2024-02-21T08:36:33;37.47;;;17.85;;
53253;SDS011;75200;53.048;7.552;2024-02-21T08:39:00;34.72;;;16.40;;
53253;SDS011;75200;53.048;7.552;2024-02-21T08:41:27;36.63;;;17.88;;
53253;SDS011;75200;53.048;7.552;2024-02-21T08:43:54;38.97;;;17.75;;
53253;SDS011;75200;53.048;7.552;2024-02-21T08:46:20;35.70;;;17.55;;
53253;SDS011;75200;53.048;7.552;2024-02-21T08:48:46;35.33;;;17.10;;
53253;SDS011;75200;53.048;7.552;2024-02-21T08:51:13;36.08;;;17.92;;
53253;SDS011;75200;53.048;7.552;2024-02-21T08:53:39;37.58;;;16.45;;
53253;SDS011;75200;53.048;7.552;2024-02-21T08:56:05;40.13;;;18.75;;
53253;SDS011;75200;53.048;7.552;2024-02-21T08:58:32;31.33;;;16.70;;
53253;SDS011;75200;53.048;7.552;2024-02-21T09:00:58;35.55;;;18.83;;
53253;SDS011;75200;53.048;7.552;2024-02-21T09:03:24;30.92;;;14.95;;
53253;SDS011;75200;53.048;7.552;2024-02-21T09:05:50;44.22;;;20.52;;
53253;SDS011;75200;53.048;7.552;2024-02-21T09:08:16;35.30;;;18.55;;
53253;SDS011;75200;53.048;7.552;2024-02-21T09:10:43;34.67;;;16.75;;
53253;SDS011;75200;53.048;7.552;2024-02-21T09:13:09;33.55;;;16.55;;
53253;SDS011;75200;53.048;7.552;2024-02-21T09:15:35;38.20;;;20.40;;
53253;SDS011;75200;53.048;7.552;2024-02-21T09:18:02;32.75;;;17.58;;
53253;SDS011;75200;53.048;7.552;2024-02-21T09:20:28;28.80;;;18.35;;
53253;SDS011;75200;53.048;7.552;2024-02-21T09:22:54;34.50;;;16.25;;
53253;SDS011;75200;53.048;7.552;2024-02-21T09:25:20;34.10;;;18.42;;
53253;SDS011;75200;53.048;7.552;2024-02-21T09:27:45;32.15;;;18.25;;
53253;SDS011;75200;53.048;7.552;2024-02-21T09:30:12;29.05;;;18.05;;
53253;SDS011;75200;53.048;7.552;2024-02-21T09:32:38;31.38;;;16.13;;
53253;SDS011;75200;53.048;7.552;2024-02-21T09:35:04;36.17;;;18.42;;
53253;SDS011;75200;53.048;7.552;2024-02-21T09:37:30;27.55;;;14.57;;
53253;SDS011;75200;53.048;7.552;2024-02-21T09:39:57;40.33;;;17.85;;
53253;SDS011;75200;53.048;7.552;2024-02-21T09:42:24;29.88;;;18.02;;
53253;SDS011;75200;53.048;7.552;2024-02-21T09:45:25;28.83;;;16.58;;
53253;SDS011;75200;53.048;7.552;2024-02-21T09:50:41;26.33;;;14.38;;
53253;SDS011;75200;53.048;7.552;2024-02-21T09:53:09;32.80;;;16.83;;
53253;SDS011;75200;53.048;7.552;2024-02-21T09:55:38;31.60;;;15.07;;
53253;SDS011;75200;53.048;7.552;2024-02-21T09:58:07;25.17;;;13.93;;
53253;SDS011;75200;53.048;7.552;2024-02-21T10:00:35;24.23;;;14.18;;
53253;SDS011;75200;53.048;7.552;2024-02-21T10:03:01;23.58;;;13.25;;
53253;SDS011;75200;53.048;7.552;2024-02-21T10:05:33;29.33;;;14.20;;
53253;SDS011;75200;53.048;7.552;2024-02-21T10:08:00;23.95;;;12.50;;
53253;SDS011;75200;53.048;7.552;2024-02-21T10:10:27;25.20;;;14.68;;
53253;SDS011;75200;53.048;7.552;2024-02-21T10:12:54;23.77;;;12.55;;
53253;SDS011;75200;53.048;7.552;2024-02-21T10:15:21;27.00;;;13.77;;
53253;SDS011;75200;53.048;7.552;2024-02-21T10:17:49;29.33;;;13.38;;
53253;SDS011;75200;53.048;7.552;2024-02-21T10:20:15;23.10;;;13.02;;
53253;SDS011;75200;53.048;7.552;2024-02-21T10:22:41;31.38;;;15.30;;
53253;SDS011;75200;53.048;7.552;2024-02-21T10:25:16;25.13;;;12.45;;
53253;SDS011;75200;53.048;7.552;2024-02-21T10:27:42;23.15;;;12.32;;
53253;SDS011;75200;53.048;7.552;2024-02-21T10:30:13;18.98;;;11.65;;
53253;SDS011;75200;53.048;7.552;2024-02-21T10:32:52;26.33;;;14.70;;
53253;SDS011;75200;53.048;7.552;2024-02-21T10:37:55;21.52;;;11.70;;
53253;SDS011;75200;53.048;7.552;2024-02-21T10:40:27;24.60;;;12.25;;
53253;SDS011;75200;53.048;7.552;2024-02-21T10:42:59;23.23;;;11.75;;
53253;SDS011;75200;53.048;7.552;2024-02-21T10:45:30;18.92;;;11.32;;
53253;SDS011;75200;53.048;7.552;2024-02-21T10:48:01;26.77;;;13.35;;
53253;SDS011;75200;53.048;7.552;2024-02-21T10:50:47;20.83;;;10.93;;
53253;SDS011;75200;53.048;7.552;2024-02-21T10:54:09;19.95;;;9.60;;
53253;SDS011;75200;53.048;7.552;2024-02-21T10:56:45;18.13;;;10.18;;
53253;SDS011;75200;53.048;7.552;2024-02-21T10:59:16;22.60;;;13.38;;
53253;SDS011;75200;53.048;7.552;2024-02-21T11:01:43;22.05;;;8.57;;
53253;SDS011;75200;53.048;7.552;2024-02-21T11:04:09;20.17;;;10.85;;
53253;SDS011;75200;53.048;7.552;2024-02-21T11:06:37;24.42;;;12.50;;
53253;SDS011;75200;53.048;7.552;2024-02-21T11:09:06;17.00;;;11.00;;
53253;SDS011;75200;53.048;7.552;2024-02-21T11:11:37;15.45;;;7.82;;
53253;SDS011;75200;53.048;7.552;2024-02-21T11:14:05;21.35;;;10.15;;
53253;SDS011;75200;53.048;7.552;2024-02-21T11:16:34;18.98;;;9.20;;
53253;SDS011;75200;53.048;7.552;2024-02-21T11:19:05;20.45;;;9.68;;
53253;SDS011;75200;53.048;7.552;2024-02-21T11:21:35;16.77;;;8.38;;
53253;SDS011;75200;53.048;7.552;2024-02-21T11:24:05;23.70;;;11.15;;
53253;SDS011;75200;53.048;7.552;2024-02-21T11:26:31;20.02;;;8.80;;
53253;SDS011;75200;53.048;7.552;2024-02-21T11:31:25;18.60;;;8.63;;
53253;SDS011;75200;53.048;7.552;2024-02-21T11:33:54;17.23;;;9.20;;
53253;SDS011;75200;53.048;7.552;2024-02-21T11:36:25;16.88;;;7.88;;
53253;SDS011;75200;53.048;7.552;2024-02-21T11:38:51;19.67;;;8.38;;
53253;SDS011;75200;53.048;7.552;2024-02-21T11:41:18;19.90;;;8.18;;
53253;SDS011;75200;53.048;7.552;2024-02-21T11:43:46;15.02;;;7.28;;
53253;SDS011;75200;53.048;7.552;2024-02-21T11:46:16;15.90;;;7.22;;
53253;SDS011;75200;53.048;7.552;2024-02-21T11:48:42;15.15;;;6.88;;
53253;SDS011;75200;53.048;7.552;2024-02-21T11:51:19;13.43;;;7.05;;
53253;SDS011;75200;53.048;7.552;2024-02-21T11:53:47;15.57;;;6.60;;
53253;SDS011;75200;53.048;7.552;2024-02-21T11:56:13;16.98;;;5.60;;
53253;SDS011;75200;53.048;7.552;2024-02-21T11:58:39;16.70;;;6.90;;
53253;SDS011;75200;53.048;7.552;2024-02-21T12:01:05;18.02;;;7.90;;
53253;SDS011;75200;53.048;7.552;2024-02-21T12:03:32;10.60;;;5.38;;
53253;SDS011;75200;53.048;7.552;2024-02-21T12:06:01;15.63;;;6.80;;
53253;SDS011;75200;53.048;7.552;2024-02-21T12:08:40;16.77;;;6.80;;
53253;SDS011;75200;53.048;7.552;2024-02-21T12:11:20;14.93;;;7.68;;
53253;SDS011;75200;53.048;7.552;2024-02-21T12:13:47;13.00;;;6.65;;
53253;SDS011;75200;53.048;7.552;2024-02-21T12:16:30;17.52;;;6.70;;
53253;SDS011;75200;53.048;7.552;2024-02-21T12:18:57;13.05;;;6.63;;
53253;SDS011;75200;53.048;7.552;2024-02-21T12:21:29;11.65;;;6.43;;
53253;SDS011;75200;53.048;7.552;2024-02-21T12:23:57;13.50;;;5.78;;
53253;SDS011;75200;53.048;7.552;2024-02-21T12:26:24;12.90;;;6.60;;
53253;SDS011;75200;53.048;7.552;2024-02-21T12:28:50;11.43;;;4.93;;
53253;SDS011;75200;53.048;7.552;2024-02-21T12:31:16;11.07;;;6.00;;
53253;SDS011;75200;53.048;7.552;2024-02-21T12:33:43;13.35;;;5.65;;
53253;SDS011;75200;53.048;7.552;2024-02-21T12:36:08;10.07;;;3.67;;
53253;SDS011;75200;53.048;7.552;2024-02-21T12:38:35;9.73;;;4.85;;
53253;SDS011;75200;53.048;7.552;2024-02-21T12:41:01;13.18;;;5.55;;
53253;SDS011;75200;53.048;7.552;2024-02-21T12:43:28;11.30;;;5.30;;
53253;SDS011;75200;53.048;7.552;2024-02-21T12:45:54;11.15;;;5.68;;
53253;SDS011;75200;53.048;7.552;2024-02-21T12:48:20;12.32;;;5.65;;
53253;SDS011;75200;53.048;7.552;2024-02-21T12:50:48;9.98;;;4.60;;
53253;SDS011;75200;53.048;7.552;2024-02-21T12:53:16;13.60;;;6.25;;
53253;SDS011;75200;53.048;7.552;2024-02-21T12:55:44;14.65;;;6.75;;
53253;SDS011;75200;53.048;7.552;2024-02-21T12:58:10;11.27;;;4.93;;
53253;SDS011;75200;53.048;7.552;2024-02-21T13:00:36;7.95;;;2.80;;
53253;SDS011;75200;53.048;7.552;2024-02-21T13:03:03;10.73;;;4.85;;
53253;SDS011;75200;53.048;7.552;2024-02-21T13:05:29;9.20;;;4.30;;
53253;SDS011;75200;53.048;7.552;2024-02-21T13:07:55;11.40;;;5.30;;
53253;SDS011;75200;53.048;7.552;2024-02-21T13:10:21;12.40;;;3.95;;
53253;SDS011;75200;53.048;7.552;2024-02-21T13:12:47;9.00;;;4.72;;
53253;SDS011;75200;53.048;7.552;2024-02-21T13:15:13;9.13;;;3.30;;
53253;SDS011;75200;53.048;7.552;2024-02-21T13:17:39;9.95;;;4.72;;
53253;SDS011;75200;53.048;7.552;2024-02-21T13:20:05;11.55;;;4.40;;
53253;SDS011;75200;53.048;7.552;2024-02-21T13:22:33;11.00;;;4.10;;
53253;SDS011;75200;53.048;7.552;2024-02-21T13:25:00;11.25;;;5.25;;
53253;SDS011;75200;53.048;7.552;2024-02-21T13:27:26;9.13;;;4.13;;
53253;SDS011;75200;53.048;7.552;2024-02-21T13:29:51;8.43;;;3.60;;
53253;SDS011;75200;53.048;7.552;2024-02-21T13:32:18;10.77;;;4.43;;
53253;SDS011;75200;53.048;7.552;2024-02-21T13:34:44;9.18;;;3.80;;
53253;SDS011;75200;53.048;7.552;2024-02-21T13:37:10;9.27;;;3.28;;
53253;SDS011;75200;53.048;7.552;2024-02-21T13:39:36;6.82;;;2.55;;
53253;SDS011;75200;53.048;7.552;2024-02-21T13:42:02;7.32;;;3.20;;
53253;SDS011;75200;53.048;7.552;2024-02-21T13:44:31;7.55;;;2.42;;
53253;SDS011;75200;53.048;7.552;2024-02-21T13:46:57;7.28;;;3.35;;
53253;SDS011;75200;53.048;7.552;2024-02-21T13:49:23;7.40;;;2.35;;
53253;SDS011;75200;53.048;7.552;2024-02-21T13:51:49;8.25;;;2.85;;
53253;SDS011;75200;53.048;7.552;2024-02-21T13:54:15;5.90;;;2.60;;
53253;SDS011;75200;53.048;7.552;2024-02-21T13:56:44;7.88;;;3.47;;
53253;SDS011;75200;53.048;7.552;2024-02-21T13:59:11;6.05;;;2.67;;
53253;SDS011;75200;53.048;7.552;2024-02-21T14:01:41;5.30;;;2.22;;
53253;SDS011;75200;53.048;7.552;2024-02-21T14:04:08;8.88;;;3.15;;
53253;SDS011;75200;53.048;7.552;2024-02-21T14:06:33;6.72;;;2.35;;
53253;SDS011;75200;53.048;7.552;2024-02-21T14:08:59;7.00;;;2.35;;
53253;SDS011;75200;53.048;7.552;2024-02-21T14:11:25;5.85;;;2.20;;
53253;SDS011;75200;53.048;7.552;2024-02-21T14:13:52;6.55;;;3.42;;
53253;SDS011;75200;53.048;7.552;2024-02-21T14:16:22;6.90;;;2.60;;
53253;SDS011;75200;53.048;7.552;2024-02-21T14:18:48;5.72;;;2.20;;
53253;SDS011;75200;53.048;7.552;2024-02-21T14:21:13;5.05;;;2.17;;
53253;SDS011;75200;53.048;7.552;2024-02-21T14:23:39;7.80;;;2.08;;
53253;SDS011;75200;53.048;7.552;2024-02-21T14:26:05;7.40;;;3.28;;
53253;SDS011;75200;53.048;7.552;2024-02-21T14:28:31;11.23;;;3.47;;
53253;SDS011;75200;53.048;7.552;2024-02-21T14:30:59;7.13;;;3.45;;
53253;SDS011;75200;53.048;7.552;2024-02-21T14:33:28;8.80;;;3.00;;